Flight Number: AVA1069 Duration: 1:15
Departure: Split (LDSP) at 12:00 Distance: 315.874 Nm
Arrival: Sofia (LBSF) at 13:15 Equipment: ATR72

Weather Information
Split / Resnik, Croatia (LDSP) 43-32N 016-18E 21M Jul 19, 2024 - 03:00 PM EDT / 2024.07.19 1900 UTC
Wind: from the NE (040 degrees) at 6 MPH (5 KT) (direction variable):0
Visibility: greater than 7 mile(s):0 Temperature: 84 F (29 C) Dew Point: 73 F (23 C) Relative Humidity: 70% Pressure (altimeter): 29.83 in. Hg (1010 hPa)
ob: LDSP 191900Z 04005KT 010V080 CAVOK 29/23 Q1010 NOSIG cycle: 19
Sunrise: 03:35 Sunset: 18:26 (UTC)

Sofia Observ. , Bulgaria (LBSF) 42-39N 023-23E 595M Jul 19, 2024 - 03:00 PM EDT / 2024.07.19 1900 UTC
Wind: from the E (100 degrees) at 9 MPH (8 KT):0
Visibility: greater than 7 mile(s):0 Temperature: 78 F (26 C) Dew Point: 60 F (16 C) Relative Humidity: 54% Pressure (altimeter): 29.97 in. Hg (1015 hPa)
ob: LBSF 191900Z AUTO 10008KT 9999 NCD 26/16 Q1015 NOSIG cycle: 19
Sunrise: 03:09 Sunset: 17:55 (UTC)

TAF:2024/07/19 18:18 TAF LBSF 191700Z 1918/2018 06010KT 9999 SCT060 BECMG 1919/1921 VRB04KT BECMG 2006/2008 12010KT PROB30 TEMPO 2014/2018 4000 TSRA SCT040CB BKN060

This route has never been flown.

Route map